createdAt,value
2018-02-12T00:00:07.123Z,48.25
2018-02-12T00:01:16.352Z,48.25
2018-02-12T00:02:25.304Z,48.54
2018-02-12T00:03:34.261Z,48.54
2018-02-12T00:04:42.953Z,48.25
2018-02-12T00:05:51.642Z,48.45
2018-02-12T00:07:00.334Z,48.16
2018-02-12T00:08:09.291Z,48.54
2018-02-12T00:09:18.246Z,48.35
2018-02-12T00:10:27.733Z,48.35
2018-02-12T00:11:36.425Z,48.35
2018-02-12T00:12:45.648Z,48.25
2018-02-12T00:13:54.868Z,48.45
2018-02-12T00:15:03.827Z,48.45
2018-02-12T00:16:12.779Z,48.35
2018-02-12T00:17:21.468Z,48.54
2018-02-12T00:18:30.477Z,48.54
2018-02-12T00:19:39.167Z,48.54
2018-02-12T00:20:47.856Z,48.35
2018-02-12T00:21:57.094Z,48.45
2018-02-12T00:23:05.778Z,48.35
2018-02-12T00:24:14.996Z,48.35
2018-02-12T00:25:23.951Z,48.54
2018-02-12T00:26:32.906Z,48.54
2018-02-12T00:27:41.604Z,48.54
2018-02-12T00:28:50.290Z,48.25
2018-02-12T00:29:59.515Z,48.25
2018-02-12T00:31:08.738Z,48.45
2018-02-12T00:32:17.430Z,48.45
2018-02-12T00:33:26.649Z,48.35
2018-02-12T00:34:35.604Z,48.45
2018-02-12T00:35:44.295Z,48.25
2018-02-12T00:36:53.251Z,48.25
2018-02-12T00:38:01.942Z,48.25
2018-02-12T00:39:11.167Z,48.25
2018-02-12T00:40:20.123Z,48.45
2018-02-12T00:41:29.081Z,48.54
2018-02-12T00:42:37.771Z,48.54
2018-02-12T00:43:46.996Z,48.25
2018-02-12T00:44:55.948Z,48.54
2018-02-12T00:46:05.170Z,48.45
2018-02-12T00:47:14.124Z,48.35
2018-02-12T00:48:23.342Z,48.35
2018-02-12T00:49:32.568Z,48.35
2018-02-12T00:50:41.532Z,48.35
2018-02-12T00:51:51.019Z,48.54
2018-02-12T00:53:00.241Z,48.35
2018-02-12T00:54:09.463Z,48.35
2018-02-12T00:55:18.680Z,48.35
2018-02-12T00:56:27.638Z,47.87
2018-02-12T00:57:36.330Z,48.64
2018-02-12T00:58:45.284Z,48.25
2018-02-12T00:59:54.505Z,48.64
2018-02-12T01:01:03.463Z,48.64
2018-02-12T01:02:12.420Z,48.16
2018-02-12T01:03:21.374Z,48.16
2018-02-12T01:04:30.067Z,48.16
2018-02-12T01:05:39.023Z,48.25
2018-02-12T01:06:47.976Z,48.25
2018-02-12T01:07:56.935Z,47.68
2018-02-12T01:09:05.622Z,48.45
2018-02-12T01:10:15.109Z,48.35
2018-02-12T01:11:24.338Z,48.25
2018-02-12T01:12:33.030Z,47.87
2018-02-12T01:13:41.982Z,47.77
2018-02-12T01:14:50.937Z,48.07
2018-02-12T01:15:59.624Z,47.68
2018-02-12T01:17:08.576Z,47.68
2018-02-12T01:18:17.796Z,47.68
2018-02-12T01:19:27.292Z,48.07
2018-02-12T01:20:35.982Z,47.49
2018-02-12T01:21:44.670Z,47.97
2018-02-12T01:22:53.362Z,47.97
2018-02-12T01:24:02.052Z,47.97
2018-02-12T01:25:10.758Z,47.68
2018-02-12T01:26:19.692Z,47.68
2018-02-12T01:27:28.645Z,47.77
2018-02-12T01:28:38.133Z,47.77
2018-02-12T01:29:47.358Z,47.68
2018-02-12T01:30:56.051Z,47.87
2018-02-12T01:32:04.741Z,47.77
2018-02-12T01:33:13.959Z,47.87
2018-02-12T01:34:22.648Z,47.87
2018-02-12T01:35:31.339Z,47.68
2018-02-12T01:36:40.034Z,47.68
2018-02-12T01:37:49.525Z,47.68
2018-02-12T01:38:58.482Z,47.77
2018-02-12T01:40:07.448Z,47.87
2018-02-12T01:41:16.404Z,47.87
2018-02-12T01:42:25.094Z,47.58
2018-02-12T01:43:34.100Z,47.77
2018-02-12T01:44:43.057Z,47.68
2018-02-12T01:45:52.272Z,47.97
2018-02-12T01:47:01.496Z,47.68
2018-02-12T01:48:10.455Z,47.77
2018-02-12T01:49:19.677Z,47.97
2018-02-12T01:50:28.641Z,47.87
2018-02-12T01:51:37.594Z,47.77
2018-02-12T01:52:46.813Z,47.77
2018-02-12T01:53:55.502Z,47.87
2018-02-12T01:55:04.728Z,47.77
2018-02-12T01:56:13.683Z,47.87
2018-02-12T01:57:22.635Z,47.49
2018-02-12T01:58:31.591Z,47.87
2018-02-12T01:59:40.549Z,47.58
2018-02-12T02:00:49.766Z,47.77
2018-02-12T02:01:58.987Z,47.77
2018-02-12T02:03:07.677Z,47.87
2018-02-12T02:04:16.639Z,47.77
2018-02-12T02:05:25.867Z,47.58
2018-02-12T02:06:34.555Z,47.77
2018-02-12T02:07:43.511Z,47.77
2018-02-12T02:08:52.206Z,47.77
2018-02-12T02:10:00.894Z,47.49
2018-02-12T02:11:09.583Z,47.77
2018-02-12T02:12:18.534Z,47.49
2018-02-12T02:13:27.491Z,47.68
2018-02-12T02:14:36.446Z,47.58
2018-02-12T02:15:45.404Z,47.68
2018-02-12T02:16:54.358Z,47.68
2018-02-12T02:18:03.050Z,47.39
2018-02-12T02:19:12.007Z,47.49
2018-02-12T02:20:20.963Z,47.49
2018-02-12T02:21:29.920Z,47.77
2018-02-12T02:22:38.875Z,47.39
2018-02-12T02:23:47.834Z,47.49
2018-02-12T02:24:57.059Z,47.49
2018-02-12T02:26:06.014Z,47.97
2018-02-12T02:27:15.233Z,47.87
2018-02-12T02:28:24.454Z,47.77
2018-02-12T02:29:33.407Z,47.77
2018-02-12T02:30:42.894Z,47.77
2018-02-12T02:31:51.850Z,47.87
2018-02-12T02:33:01.068Z,47.87
2018-02-12T02:34:10.307Z,47.97
2018-02-12T02:35:19.536Z,47.39
2018-02-12T02:36:28.769Z,47.97
2018-02-12T02:37:37.729Z,47.97
2018-02-12T02:38:46.962Z,47.77
2018-02-12T02:39:56.448Z,47.77
2018-02-12T02:41:05.978Z,47.77
2018-02-12T02:42:15.203Z,47.39
2018-02-12T02:43:23.894Z,47.97
2018-02-12T02:44:32.861Z,47.97
2018-02-12T02:45:42.086Z,47.68
2018-02-12T02:46:51.331Z,47.97
2018-02-12T02:48:00.028Z,47.87
2018-02-12T02:49:09.252Z,47.87
2018-02-12T02:50:17.946Z,47.58
2018-02-12T02:51:26.909Z,47.77
2018-02-12T02:52:36.410Z,47.3
2018-02-12T02:53:45.895Z,47.77
2018-02-12T02:54:54.854Z,47.77
2018-02-12T02:56:03.812Z,47.68
2018-02-12T02:57:13.033Z,47.49
2018-02-12T02:58:22.258Z,47.2
2018-02-12T02:59:30.939Z,47.68
2018-02-12T03:00:40.708Z,47.3
2018-02-12T03:01:49.666Z,47.3
2018-02-12T03:02:58.898Z,47.3
2018-02-12T03:04:07.861Z,47.68
2018-02-12T03:05:16.819Z,47.58
2018-02-12T03:06:25.508Z,47.49
2018-02-12T03:07:34.199Z,47.2
2018-02-12T03:08:43.155Z,47.3
2018-02-12T03:09:51.840Z,47.58
2018-02-12T03:11:00.793Z,47.58
2018-02-12T03:12:09.747Z,47.3
2018-02-12T03:13:18.973Z,47.3
2018-02-12T03:14:27.929Z,47.39
2018-02-12T03:15:36.886Z,47.68
2018-02-12T03:16:46.105Z,47.58
2018-02-12T03:17:55.321Z,47.49
2018-02-12T03:19:04.278Z,47.49
2018-02-12T03:20:13.499Z,47.58
2018-02-12T03:21:22.454Z,47.58
2018-02-12T03:22:31.410Z,47.68
2018-02-12T03:23:40.364Z,47.58
2018-02-12T03:24:49.318Z,47.49
2018-02-12T03:25:58.007Z,47.68
2018-02-12T03:27:07.228Z,47.49
2018-02-12T03:28:16.718Z,47.58
2018-02-12T03:29:25.673Z,47.49
2018-02-12T03:30:34.625Z,47.49
2018-02-12T03:31:43.314Z,47.58
2018-02-12T03:32:52.533Z,47.49
2018-02-12T03:34:01.486Z,47.58
2018-02-12T03:35:10.707Z,47.58
2018-02-12T03:36:19.396Z,47.58
2018-02-12T03:37:28.083Z,47.58
2018-02-12T03:38:37.089Z,47.58
2018-02-12T03:39:46.045Z,47.3
2018-02-12T03:40:55.266Z,47.49
2018-02-12T03:42:04.216Z,47.3
2018-02-12T03:43:13.171Z,47.3
2018-02-12T03:44:22.128Z,47.2
2018-02-12T03:45:30.816Z,47.58
2018-02-12T03:46:39.778Z,47.2
2018-02-12T03:47:48.992Z,47.49
2018-02-12T03:48:57.680Z,47.49
2018-02-12T03:50:06.370Z,47.3
2018-02-12T03:51:15.326Z,47.39
2018-02-12T03:52:24.016Z,47.58
2018-02-12T03:53:32.971Z,47.3
2018-02-12T03:54:41.930Z,47.3
2018-02-12T03:55:50.921Z,47.1
2018-02-12T03:56:59.571Z,47.49
2018-02-12T03:58:08.524Z,47.3
2018-02-12T03:59:17.213Z,47.2
2018-02-12T04:00:25.903Z,47.39
2018-02-12T04:01:34.589Z,47.39
2018-02-12T04:02:43.280Z,47.3
2018-02-12T04:03:51.971Z,47.3
2018-02-12T04:05:00.927Z,48.07
2018-02-12T04:06:09.631Z,47.1
2018-02-12T04:07:18.852Z,47.1
2018-02-12T04:08:27.540Z,47.2
2018-02-12T04:09:36.758Z,47.2
2018-02-12T04:10:45.986Z,47
2018-02-12T04:11:54.944Z,47.2
2018-02-12T04:13:03.899Z,47.2
2018-02-12T04:14:12.854Z,47.2
2018-02-12T04:15:22.110Z,47.2
2018-02-12T04:16:31.338Z,47.2
2018-02-12T04:17:40.291Z,47.1
2018-02-12T04:18:48.981Z,47.2
2018-02-12T04:19:57.670Z,47.39
2018-02-12T04:21:07.157Z,47.2
2018-02-12T04:22:16.108Z,47.39
2018-02-12T04:23:25.059Z,47.2
2018-02-12T04:24:34.284Z,47.2
2018-02-12T04:25:42.974Z,47
2018-02-12T04:26:51.929Z,47.2
2018-02-12T04:28:00.619Z,47.2
2018-02-12T04:29:09.311Z,47.39
2018-02-12T04:30:17.999Z,47
2018-02-12T04:31:26.972Z,47.2
2018-02-12T04:32:35.941Z,47.2
2018-02-12T04:33:44.638Z,47
2018-02-12T04:34:53.590Z,47.3
2018-02-12T04:36:02.279Z,47
2018-02-12T04:37:11.232Z,47
2018-02-12T04:38:20.452Z,47.1
2018-02-12T04:39:29.409Z,47.2
2018-02-12T04:40:38.361Z,47.2
2018-02-12T04:41:47.857Z,47.2
2018-02-12T04:42:56.811Z,47.2
2018-02-12T04:44:06.034Z,47.39
2018-02-12T04:45:14.726Z,47.1
2018-02-12T04:46:23.681Z,47.3
2018-02-12T04:47:32.636Z,47.1
2018-02-12T04:48:41.325Z,47.39
2018-02-12T04:49:50.286Z,46.91
2018-02-12T04:50:59.510Z,47.3
2018-02-12T04:52:08.469Z,47.2
2018-02-12T04:53:17.694Z,47.3
2018-02-12T04:54:26.647Z,47.3
2018-02-12T04:55:35.607Z,47.3
2018-02-12T04:56:44.560Z,47.1
2018-02-12T04:57:53.251Z,47.39
2018-02-12T04:59:02.471Z,47.2
2018-02-12T05:00:11.430Z,47.39
2018-02-12T05:01:20.651Z,47.2
2018-02-12T05:02:29.868Z,47
2018-02-12T05:03:39.091Z,47.3
2018-02-12T05:04:48.577Z,47.1
2018-02-12T05:05:57.277Z,46.91
2018-02-12T05:07:06.511Z,47.49
2018-02-12T05:08:16.528Z,46.72
2018-02-12T05:09:25.219Z,47.3
2018-02-12T05:10:33.910Z,47.58
2018-02-12T05:11:43.401Z,47
2018-02-12T05:12:52.358Z,47.58
2018-02-12T05:14:01.047Z,47.3
2018-02-12T05:15:09.741Z,47.58
2018-02-12T05:16:18.432Z,47.68
2018-02-12T05:17:27.653Z,47.49
2018-02-12T05:18:36.605Z,47.68
2018-02-12T05:19:45.831Z,47.39
2018-02-12T05:20:55.055Z,47.39
2018-02-12T05:22:03.742Z,47.39
2018-02-12T05:23:12.431Z,47.3
2018-02-12T05:24:21.121Z,47.2
2018-02-12T05:25:30.348Z,47.1
2018-02-12T05:26:39.040Z,47
2018-02-12T05:27:47.727Z,47.3
2018-02-12T05:28:56.418Z,46.91
2018-02-12T05:30:05.376Z,47.39
2018-02-12T05:31:14.333Z,47.1
2018-02-12T05:32:23.289Z,46.91
2018-02-12T05:33:32.510Z,47.1
2018-02-12T05:34:41.203Z,47.49
2018-02-12T05:35:49.888Z,47.2
2018-02-12T05:36:58.576Z,47.2
2018-02-12T05:38:07.533Z,47.39
2018-02-12T05:39:16.760Z,47.2
2018-02-12T05:40:25.716Z,46.91
2018-02-12T05:41:34.674Z,47
2018-02-12T05:42:43.629Z,47
2018-02-12T05:43:53.121Z,47.1
2018-02-12T05:45:01.807Z,47
2018-02-12T05:46:10.498Z,47
2018-02-12T05:47:19.453Z,47.1
2018-02-12T05:48:28.140Z,46.91
2018-02-12T05:49:37.104Z,47.3
2018-02-12T05:50:46.362Z,47.1
2018-02-12T05:51:55.014Z,47.1
2018-02-12T05:53:04.237Z,47
2018-02-12T05:54:13.458Z,47
2018-02-12T05:55:22.413Z,46.91
2018-02-12T05:56:31.367Z,47.1
2018-02-12T05:57:40.059Z,47.2
2018-02-12T05:58:49.303Z,46.91
2018-02-12T05:59:58.531Z,46.81
2018-02-12T06:01:07.493Z,47.2
2018-02-12T06:02:16.981Z,47.2
2018-02-12T06:03:25.942Z,47.1
2018-02-12T06:04:34.900Z,47.2
2018-02-12T06:05:43.850Z,47.39
2018-02-12T06:06:52.542Z,47
2018-02-12T06:08:01.236Z,46.91
2018-02-12T06:09:10.458Z,47.3
2018-02-12T06:10:19.689Z,46.91
2018-02-12T06:11:28.645Z,47.49
2018-02-12T06:12:37.602Z,47.1
2018-02-12T06:13:46.608Z,47.1
2018-02-12T06:14:55.562Z,47.58
2018-02-12T06:16:04.792Z,46.81
2018-02-12T06:17:13.480Z,47.1
2018-02-12T06:18:22.435Z,47.49
2018-02-12T06:19:31.125Z,47.1
2018-02-12T06:20:39.815Z,47.3
2018-02-12T06:21:49.300Z,47.49
2018-02-12T06:22:57.987Z,47.39
2018-02-12T06:24:07.205Z,47
2018-02-12T06:25:16.166Z,47.49
2018-02-12T06:26:24.857Z,47.49
2018-02-12T06:27:33.808Z,47.49
2018-02-12T06:28:43.559Z,47.49
2018-02-12T06:29:52.510Z,47.1
2018-02-12T06:31:01.203Z,46.81
2018-02-12T06:32:10.424Z,47.2
2018-02-12T06:33:19.913Z,47.1
2018-02-12T06:34:28.867Z,47.39
2018-02-12T06:35:38.094Z,47.39
2018-02-12T06:36:47.055Z,47.49
2018-02-12T06:37:56.009Z,47.2
2018-02-12T06:39:04.962Z,46.72
2018-02-12T06:40:13.646Z,47.1
2018-02-12T06:41:22.603Z,46.72
2018-02-12T06:42:31.558Z,47.49
2018-02-12T06:43:40.512Z,47
2018-02-12T06:44:49.205Z,47.3
2018-02-12T06:45:57.892Z,47.3
2018-02-12T06:47:06.852Z,47.1
2018-02-12T06:48:15.808Z,47
2018-02-12T06:49:24.495Z,46.91
2018-02-12T06:50:33.453Z,47
2018-02-12T06:51:42.693Z,47.1
2018-02-12T06:52:51.910Z,47.1
2018-02-12T06:54:00.870Z,47.1
2018-02-12T06:55:10.092Z,47.3
2018-02-12T06:56:19.047Z,47
2018-02-12T06:57:27.740Z,47.3
2018-02-12T06:58:36.957Z,47.49
2018-02-12T06:59:46.183Z,47
2018-02-12T07:00:55.137Z,47.1
2018-02-12T07:02:04.092Z,46.91
2018-02-12T07:03:13.050Z,47.2
2018-02-12T07:04:22.013Z,46.91
2018-02-12T07:05:30.964Z,47.1
2018-02-12T07:06:39.652Z,46.91
2018-02-12T07:07:48.878Z,47.49
2018-02-12T07:08:57.833Z,47.49
2018-02-12T07:10:06.792Z,47.2
2018-02-12T07:11:15.480Z,46.91
2018-02-12T07:12:24.171Z,47.3
2018-02-12T07:13:33.394Z,46.81
2018-02-12T07:14:42.351Z,47.2
2018-02-12T07:15:51.042Z,47.3
2018-02-12T07:17:00.527Z,47.2
2018-02-12T07:18:09.478Z,47.1
2018-02-12T07:19:18.437Z,47.1
2018-02-12T07:20:27.429Z,47.1
2018-02-12T07:21:36.394Z,47.1
2018-02-12T07:22:45.081Z,47.1
2018-02-12T07:23:53.771Z,47
2018-02-12T07:25:02.731Z,46.72
2018-02-12T07:26:11.950Z,47
2018-02-12T07:27:20.904Z,46.43
2018-02-12T07:28:29.594Z,46.43
2018-02-12T07:29:38.549Z,45.66
2018-02-12T07:30:47.507Z,45.95
2018-02-12T07:31:56.197Z,46.23
2018-02-12T07:33:05.421Z,46.14
2018-02-12T07:34:14.110Z,47
2018-02-12T07:35:23.334Z,46.91
2018-02-12T07:36:32.024Z,46.53
2018-02-12T07:37:40.978Z,47.2
2018-02-12T07:38:49.666Z,46.72
2018-02-12T07:39:58.360Z,47.49
2018-02-12T07:41:07.050Z,47.49
2018-02-12T07:42:15.740Z,47.49
2018-02-12T07:43:24.691Z,47.2
2018-02-12T07:44:33.652Z,47.1
2018-02-12T07:45:42.609Z,47.39
2018-02-12T07:46:51.561Z,46.81
2018-02-12T07:48:00.784Z,47.49
2018-02-12T07:49:09.475Z,47.2
2018-02-12T07:50:18.429Z,47.2
2018-02-12T07:51:27.119Z,47.49
2018-02-12T07:52:36.077Z,47.1
2018-02-12T07:53:45.028Z,47.49
2018-02-12T07:54:53.976Z,47.1
2018-02-12T07:56:02.671Z,47.49
2018-02-12T07:57:11.630Z,47.58
2018-02-12T07:58:20.599Z,47.3
2018-02-12T07:59:29.280Z,47.39
2018-02-12T08:00:38.546Z,47.2
2018-02-12T08:01:47.501Z,47
2018-02-12T08:02:56.463Z,47.1
2018-02-12T08:04:05.418Z,47.3
2018-02-12T08:05:14.381Z,47.2
2018-02-12T08:06:23.339Z,47.3
2018-02-12T08:07:32.304Z,46.72
2018-02-12T08:08:41.529Z,47.2
2018-02-12T08:09:50.480Z,46.91
2018-02-12T08:10:59.444Z,47.1
2018-02-12T08:12:08.154Z,47.3
2018-02-12T08:13:17.721Z,46.91
2018-02-12T08:14:26.950Z,47
2018-02-12T08:15:35.641Z,46.91
2018-02-12T08:16:44.595Z,46.91
2018-02-12T08:17:54.089Z,47
2018-02-12T08:19:03.042Z,47
2018-02-12T08:20:12.002Z,46.72
2018-02-12T08:21:20.692Z,46.62
2018-02-12T08:22:29.382Z,46.62
2018-02-12T08:23:38.406Z,46.69
2018-02-12T08:24:47.638Z,47.1
2018-02-12T08:25:56.856Z,46.72
2018-02-12T08:27:05.809Z,46.72
2018-02-12T08:28:14.767Z,46.53
2018-02-12T08:29:23.726Z,46.72
2018-02-12T08:30:32.417Z,46.91
2018-02-12T08:31:41.637Z,46.72
2018-02-12T08:32:50.326Z,46.72
2018-02-12T08:33:59.018Z,46.72
2018-02-12T08:35:08.243Z,46.72
2018-02-12T08:36:17.468Z,46.81
2018-02-12T08:37:26.423Z,46.81
2018-02-12T08:38:35.114Z,46.72
2018-02-12T08:39:43.804Z,46.72
2018-02-12T08:40:52.759Z,46.72
2018-02-12T08:42:01.450Z,46.72
2018-02-12T08:43:10.674Z,46.72
2018-02-12T08:44:19.630Z,46.72
2018-02-12T08:45:28.321Z,46.81
2018-02-12T08:46:37.280Z,46.72
2018-02-12T08:47:46.237Z,46.72
2018-02-12T08:48:54.928Z,46.72
2018-02-12T08:50:03.890Z,46.53
2018-02-12T08:51:12.843Z,46.81
2018-02-12T08:52:21.532Z,46.91
2018-02-12T08:53:30.224Z,46.81
2018-02-12T08:54:39.179Z,46.91
2018-02-12T08:55:47.867Z,47
2018-02-12T08:56:57.140Z,46.81
2018-02-12T08:58:06.074Z,46.62
2018-02-12T08:59:14.764Z,46.72
2018-02-12T09:00:23.978Z,47
2018-02-12T09:01:33.470Z,46.91
2018-02-12T09:02:42.426Z,46.91
2018-02-12T09:03:51.381Z,46.81
2018-02-12T09:05:00.338Z,46.72
2018-02-12T09:06:09.295Z,46.91
2018-02-12T09:07:18.251Z,46.91
2018-02-12T09:08:26.943Z,46.91
2018-02-12T09:09:36.445Z,46.91
2018-02-12T09:10:45.926Z,46.81
2018-02-12T09:11:54.885Z,46.72
2018-02-12T09:13:04.420Z,46.53
2018-02-12T09:14:13.109Z,47.1
2018-02-12T09:15:22.328Z,46.53
2018-02-12T09:16:31.054Z,47.1
2018-02-12T09:17:39.979Z,47
2018-02-12T09:18:48.670Z,47
2018-02-12T09:19:57.364Z,47
2018-02-12T09:21:06.586Z,46.43
2018-02-12T09:22:15.275Z,47
2018-02-12T09:23:24.504Z,47
2018-02-12T09:24:33.194Z,47
2018-02-12T09:25:41.877Z,47
2018-02-12T09:26:50.835Z,46.04
2018-02-12T09:27:59.790Z,46.23
2018-02-12T09:29:08.481Z,46.33
2018-02-12T09:30:17.173Z,47
2018-02-12T09:31:25.866Z,46.81
2018-02-12T09:32:34.824Z,47.1
2018-02-12T09:33:43.776Z,46.72
2018-02-12T09:34:53.001Z,47
2018-02-12T09:36:01.956Z,46.81
2018-02-12T09:37:11.709Z,46.23
2018-02-12T09:38:20.670Z,46.33
2018-02-12T09:39:30.153Z,46.62
2018-02-12T09:41:10.918Z,46.72
2018-02-12T09:42:19.877Z,46.72
2018-02-12T09:43:28.566Z,46.43
2018-02-12T09:44:37.788Z,46.33
2018-02-12T09:45:46.551Z,46.23
2018-02-12T09:46:55.509Z,46.53
2018-02-12T09:48:04.466Z,46.43
2018-02-12T09:49:13.686Z,46.43
2018-02-12T09:50:22.977Z,46.53
2018-02-12T09:51:31.931Z,46.53
2018-02-12T09:52:40.888Z,46.23
2018-02-12T09:53:49.845Z,46.33
2018-02-12T09:54:58.536Z,46.53
2018-02-12T09:56:07.226Z,46.33
2018-02-12T09:57:16.179Z,46.43
2018-02-12T09:58:25.208Z,46.81
2018-02-12T09:59:34.164Z,46.23
2018-02-12T10:00:43.122Z,46.62
2018-02-12T10:01:52.616Z,46.81
2018-02-12T10:03:01.570Z,46.04
2018-02-12T10:04:10.526Z,46.62
2018-02-12T10:05:19.491Z,46.14
2018-02-12T10:06:29.053Z,46.72
2018-02-12T10:07:37.743Z,46.72
2018-02-12T10:08:46.695Z,46.23
2018-02-12T10:09:55.719Z,46.14
2018-02-12T10:11:04.411Z,46.04
2018-02-12T10:12:13.374Z,46.72
2018-02-12T10:13:22.326Z,46.62
2018-02-12T10:14:31.865Z,46.43
2018-02-12T10:15:40.512Z,46.72
2018-02-12T10:16:49.468Z,46.43
2018-02-12T10:17:58.158Z,46.81
2018-02-12T10:19:07.387Z,46.43
2018-02-12T10:20:16.073Z,46.43
2018-02-12T10:21:24.761Z,45.95
2018-02-12T10:22:34.248Z,46.23
2018-02-12T10:23:43.203Z,46.33
2018-02-12T10:24:52.154Z,46.14
2018-02-12T10:26:00.844Z,46.91
2018-02-12T10:27:10.335Z,46.33
2018-02-12T10:28:19.290Z,46.14
2018-02-12T10:29:28.249Z,46.04
2018-02-12T10:30:37.473Z,46.33
2018-02-12T10:31:46.429Z,46.23
2018-02-12T10:32:55.656Z,45.85
2018-02-12T10:34:04.877Z,45.76
2018-02-12T10:35:13.564Z,45.66
2018-02-12T10:36:22.788Z,45.95
2018-02-12T10:37:31.757Z,45.95
2018-02-12T10:38:41.009Z,45.85
2018-02-12T10:39:50.223Z,45.95
2018-02-12T10:40:59.180Z,45.85
2018-02-12T10:42:08.134Z,45.76
2018-02-12T10:43:16.835Z,45.85
2018-02-12T10:44:25.782Z,45.95
2018-02-12T10:45:35.004Z,45.95
2018-02-12T10:46:43.959Z,45.95
2018-02-12T10:47:52.922Z,46.04
2018-02-12T10:49:02.145Z,45.85
2018-02-12T10:50:11.446Z,45.85
2018-02-12T10:51:20.407Z,45.85
2018-02-12T10:52:29.357Z,45.76
2018-02-12T10:53:38.583Z,45.85
2018-02-12T10:54:47.279Z,45.85
2018-02-12T10:55:56.233Z,45.85
2018-02-12T10:57:05.456Z,45.85
2018-02-12T10:58:14.410Z,45.95
2018-02-12T10:59:23.633Z,46.14
2018-02-12T11:00:32.590Z,45.85
2018-02-12T11:01:41.806Z,45.85
2018-02-12T11:02:51.026Z,45.76
2018-02-12T11:04:00.245Z,45.85
2018-02-12T11:05:09.471Z,45.66
2018-02-12T11:06:18.161Z,46.04
2018-02-12T11:07:27.122Z,45.95
2018-02-12T11:08:36.349Z,46.14
2018-02-12T11:09:45.569Z,45.95
2018-02-12T11:10:54.261Z,45.95
2018-02-12T11:12:03.480Z,45.95
2018-02-12T11:13:12.435Z,45.95
2018-02-12T11:14:21.686Z,45.85
2018-02-12T11:15:30.909Z,45.95
2018-02-12T11:16:39.863Z,46.04
2018-02-12T11:17:48.818Z,45.95
2018-02-12T11:18:58.042Z,45.78
2018-02-12T11:20:07.000Z,45.66
2018-02-12T11:21:16.221Z,45.97
2018-02-12T11:22:24.915Z,45.68
2018-02-12T11:23:33.872Z,45.87
2018-02-12T11:24:42.828Z,45.87
2018-02-12T11:25:51.515Z,45.87
2018-02-12T11:27:00.998Z,45.59
2018-02-12T11:28:10.483Z,45.68
2018-02-12T11:29:19.176Z,45.78
2018-02-12T11:30:28.132Z,45.97
2018-02-12T11:31:37.090Z,45.87
2018-02-12T11:32:46.042Z,45.68
2018-02-12T11:33:54.995Z,45.59
2018-02-12T11:35:04.219Z,45.78
2018-02-12T11:36:13.177Z,45.78
2018-02-12T11:37:22.132Z,45.78
2018-02-12T11:38:31.353Z,45.59
2018-02-12T11:39:40.038Z,45.68
2018-02-12T11:40:48.731Z,45.97
2018-02-12T11:41:57.688Z,45.87
2018-02-12T11:43:06.639Z,45.97
2018-02-12T11:44:16.132Z,45.97
2018-02-12T11:45:25.088Z,46.16
2018-02-12T11:46:34.042Z,45.97
2018-02-12T11:47:42.731Z,45.78
2018-02-12T11:48:52.218Z,46.06
2018-02-12T11:50:01.173Z,45.97
2018-02-12T11:51:10.134Z,45.97
2018-02-12T11:52:19.088Z,46.06
2018-02-12T11:53:28.041Z,46.16
2018-02-12T11:54:37.531Z,45.9
2018-02-12T11:55:46.224Z,45.87
2018-02-12T11:56:55.445Z,45.97
2018-02-12T11:58:04.136Z,45.87
2018-02-12T11:59:13.361Z,45.87
2018-02-12T12:00:22.054Z,45.78
2018-02-12T12:01:31.281Z,45.78
2018-02-12T12:02:40.232Z,45.68
2018-02-12T12:03:49.458Z,45.68
2018-02-12T12:04:58.420Z,45.97
2018-02-12T12:06:07.911Z,45.68
2018-02-12T12:07:17.131Z,45.7
2018-02-12T12:08:26.085Z,45.78
2018-02-12T12:09:35.304Z,45.68
2018-02-12T12:10:44.067Z,45.68
2018-02-12T12:11:52.761Z,45.68
2018-02-12T12:13:01.714Z,45.49
2018-02-12T12:14:10.936Z,45.49
2018-02-12T12:15:20.159Z,45.78
2018-02-12T12:16:29.116Z,45.78
2018-02-12T12:17:38.603Z,45.78
2018-02-12T12:18:47.557Z,45.59
2018-02-12T12:19:56.249Z,45.78
2018-02-12T12:21:04.939Z,45.78
2018-02-12T12:22:13.633Z,45.87
2018-02-12T12:23:22.320Z,45.78
2018-02-12T12:24:31.282Z,45.78
2018-02-12T12:25:40.241Z,45.87
2018-02-12T12:26:49.729Z,45.87
2018-02-12T12:27:58.679Z,45.87
2018-02-12T12:29:07.629Z,45.97
2018-02-12T12:30:16.870Z,45.87
2018-02-12T12:31:26.413Z,45.68
2018-02-12T12:32:35.116Z,45.68
2018-02-12T12:33:44.322Z,45.7
2018-02-12T12:34:53.547Z,45.49
2018-02-12T12:36:02.502Z,45.87
2018-02-12T12:37:11.192Z,45.39
2018-02-12T12:38:20.418Z,45.39
2018-02-12T12:39:29.910Z,45.1
2018-02-12T12:40:39.140Z,45.29
2018-02-12T12:41:47.832Z,45.29
2018-02-12T12:42:56.790Z,45.29
2018-02-12T12:44:05.745Z,45.1
2018-02-12T12:45:15.493Z,45.39
2018-02-12T12:46:24.186Z,45.32
2018-02-12T12:47:33.139Z,45.49
2018-02-12T12:48:42.562Z,45.29
2018-02-12T12:49:51.516Z,45.2
2018-02-12T12:51:00.740Z,45.29
2018-02-12T12:52:09.961Z,45.29
2018-02-12T12:53:19.182Z,45.29
2018-02-12T12:54:28.411Z,45.39
2018-02-12T12:55:37.368Z,45.39
2018-02-12T12:56:46.854Z,45.2
2018-02-12T12:57:55.817Z,45.1
2018-02-12T12:59:04.769Z,45.01
2018-02-12T13:00:13.988Z,45.01
2018-02-12T13:01:23.014Z,44.82
2018-02-12T13:02:31.703Z,44.91
2018-02-12T13:03:40.392Z,45.1
2018-02-12T13:04:49.614Z,45.01
2018-02-12T13:05:59.098Z,45.01
2018-02-12T13:07:07.788Z,45.01
2018-02-12T13:08:16.748Z,45.1
2018-02-12T13:09:25.705Z,45.01
2018-02-12T13:10:34.654Z,45.01
2018-02-12T13:11:43.344Z,45.2
2018-02-12T13:12:52.030Z,45.1
2018-02-12T13:14:00.720Z,45.1
2018-02-12T13:15:09.943Z,44.91
2018-02-12T13:16:18.685Z,45.39
2018-02-12T13:17:28.438Z,45.29
2018-02-12T13:18:37.128Z,45.29
2018-02-12T13:19:46.084Z,44.91
2018-02-12T13:20:54.773Z,45.2
2018-02-12T13:22:03.997Z,44.82
2018-02-12T13:23:12.690Z,44.82
2018-02-12T13:24:21.653Z,44.53
2018-02-12T13:25:30.883Z,43.76
2018-02-12T13:26:40.371Z,43.08
2018-02-12T13:27:49.330Z,42.99
2018-02-12T13:28:58.291Z,42.89
2018-02-12T13:30:07.248Z,42.89
2018-02-12T13:31:15.938Z,42.99
2018-02-12T13:32:24.896Z,43.18
2018-02-12T13:33:34.118Z,43.47
2018-02-12T13:34:43.074Z,43.37
2018-02-12T13:35:51.760Z,43.76
2018-02-12T13:37:00.714Z,43.95
2018-02-12T13:38:09.667Z,43.95
2018-02-12T13:39:18.359Z,44.24
2018-02-12T13:40:27.051Z,44.43
2018-02-12T13:41:36.011Z,44.53
2018-02-12T13:42:45.761Z,44.24
2018-02-12T13:43:55.262Z,44.72
2018-02-12T13:45:04.489Z,44.43
2018-02-12T13:46:13.719Z,45.39
2018-02-12T13:47:22.408Z,45.01
2018-02-12T13:48:31.365Z,45.2
2018-02-12T13:49:40.326Z,45.03
2018-02-12T13:50:49.024Z,44.91
2018-02-12T13:51:57.977Z,45.1
2018-02-12T13:53:07.463Z,45.29
2018-02-12T13:54:16.419Z,45.1
2018-02-12T13:55:25.109Z,45.1
2018-02-12T13:56:34.334Z,45.9
2018-02-12T13:57:43.559Z,45.78
2018-02-12T13:58:52.246Z,45.8
2018-02-12T14:00:01.476Z,45.61
2018-02-12T14:01:10.438Z,45.68
2018-02-12T14:02:19.124Z,45.1
2018-02-12T14:03:28.343Z,45.59
2018-02-12T14:04:37.865Z,45.68
2018-02-12T14:05:47.333Z,45.87
2018-02-12T14:06:56.426Z,45.39
2018-02-12T14:08:05.560Z,44.91
2018-02-12T14:09:14.700Z,45.29
2018-02-12T14:10:23.784Z,44.62
2018-02-12T14:11:32.961Z,44.43
2018-02-12T14:12:41.746Z,45.29
2018-02-12T14:13:50.932Z,45.2
2018-02-12T14:15:00.531Z,45.1
2018-02-12T14:16:10.085Z,45.1
2018-02-12T14:17:19.119Z,45.01
2018-02-12T14:18:29.144Z,45.2
2018-02-12T14:19:38.389Z,45.2
2018-02-12T14:20:47.868Z,45.29
2018-02-12T14:21:57.424Z,45.39
2018-02-12T14:23:06.930Z,45.01
2018-02-12T14:24:17.152Z,45.68
2018-02-12T14:25:26.846Z,45.68
2018-02-12T14:26:37.039Z,45.59
2018-02-12T14:27:46.622Z,45.68
2018-02-12T14:28:56.778Z,45.39
2018-02-12T14:30:06.066Z,45.59
2018-02-12T14:31:15.160Z,45.59
2018-02-12T14:32:23.989Z,45.68
2018-02-12T14:33:33.408Z,46.06
2018-02-12T14:34:42.200Z,45.39
2018-02-12T14:35:51.513Z,45.87
2018-02-12T14:37:00.343Z,45.97
2018-02-12T14:38:09.034Z,45.78
2018-02-12T14:39:18.044Z,45.99
2018-02-12T14:40:27.066Z,45.78
2018-02-12T14:41:35.818Z,45.97
2018-02-12T14:42:44.497Z,45.68
2018-02-12T14:43:53.922Z,45.87
2018-02-12T14:45:02.996Z,45.97
2018-02-12T14:46:11.691Z,45.59
2018-02-12T14:47:20.652Z,45.87
2018-02-12T14:48:29.609Z,45.97
2018-02-12T14:49:38.624Z,45.87
2018-02-12T14:50:48.057Z,45.59
2018-02-12T14:51:57.011Z,45.87
2018-02-12T14:53:06.023Z,45.68
2018-02-12T14:54:15.036Z,45.97
2018-02-12T14:55:24.045Z,45.7
2018-02-12T14:56:33.653Z,45.78
2018-02-12T14:57:42.440Z,45.68
2018-02-12T14:58:51.496Z,45.68